Time;durP1;ratioP1;P1;durP2;ratioP2;P2;SDS_P1;SDS_P2;PMS_P1;PMS_P2;Temp;Humidity;BMP_temperature;BMP_pressure;BME280_temperature;BME280_humidity;BME280_pressure;Samples;Min_cycle;Max_cycle;Signal;HPM_P1;HPM_P2
2022/12/22 03:27:04;;;;;;;1.90;1.53;;;;;;;8.88;100.00;153640.81;5070884;28;20522;-83
2022/12/22 03:29:50;;;;;;;1.47;1.07;;;;;;;8.85;100.00;153633.03;5069900;28;20566;-83
2022/12/22 03:32:36;;;;;;;1.97;1.17;;;;;;;8.84;100.00;153630.44;5070298;28;20519;-84
2022/12/22 03:35:21;;;;;;;3.33;1.43;;;;;;;8.82;100.00;153623.97;5070108;28;20829;-84
2022/12/22 03:38:07;;;;;;;1.77;1.23;;;;;;;8.79;100.00;153616.25;5067843;28;20564;-84
2022/12/22 03:40:52;;;;;;;1.60;1.50;;;;;;;8.82;100.00;153625.28;5056793;28;20454;-84
2022/12/22 03:46:42;;;;;;;1.63;1.10;;;;;;;8.83;100.00;153626.59;5051264;28;20430;-84
2022/12/22 03:49:27;;;;;;;1.87;1.37;;;;;;;8.80;100.00;153618.81;5064229;28;20413;-84
2022/12/22 03:52:12;;;;;;;1.47;1.00;;;;;;;8.82;100.00;153623.97;5067643;28;20442;-84
2022/12/22 03:54:57;;;;;;;1.83;1.20;;;;;;;8.82;100.00;153623.97;5069456;28;20464;-84
2022/12/22 03:57:43;;;;;;;1.80;1.47;;;;;;;8.81;100.00;153621.41;5061191;28;20442;-84
2022/12/22 04:00:28;;;;;;;2.27;1.20;;;;;;;8.84;100.00;153629.19;5070734;28;20457;-84
2022/12/22 04:03:15;;;;;;;1.80;1.40;;;;;;;8.85;100.00;153631.75;5070498;28;20500;-84
2022/12/22 04:06:00;;;;;;;1.70;1.10;;;;;;;8.81;100.00;153621.41;5100760;28;20481;-85
2022/12/22 04:08:46;;;;;;;1.77;1.53;;;;;;;8.84;100.00;153630.44;5066239;28;20456;-84
2022/12/22 04:14:34;;;;;;;1.60;1.10;;;;;;;8.95;100.00;153657.59;5070068;28;20451;-84
2022/12/22 04:17:19;;;;;;;1.70;1.07;;;;;;;8.94;100.00;153655.03;5060451;28;20827;-85
2022/12/22 04:20:08;;;;;;;1.60;1.00;;;;;;;8.91;100.00;153647.28;5069634;28;20447;-85
2022/12/22 04:22:53;;;;;;;1.80;1.00;;;;;;;8.93;100.00;153652.44;5072595;28;20408;-85
2022/12/22 04:25:38;;;;;;;2.13;1.00;;;;;;;8.92;100.00;153649.88;5072146;28;20481;-85
2022/12/22 04:28:24;;;;;;;1.90;1.23;;;;;;;8.95;100.00;153657.59;5068048;28;20474;-85
2022/12/22 04:31:09;;;;;;;2.37;1.10;;;;;;;8.97;100.00;153662.81;5072743;28;20446;-85
2022/12/22 04:33:54;;;;;;;1.20;1.00;;;;;;;9.00;100.00;153671.81;5075158;28;20781;-85
2022/12/22 04:36:41;;;;;;;2.07;0.97;;;;;;;9.08;100.00;153692.50;5073526;28;20462;-85
2022/12/22 04:39:27;;;;;;;1.40;1.10;;;;;;;9.12;100.00;153701.59;5073896;28;20516;-85
2022/12/22 04:42:12;;;;;;;2.20;1.30;;;;;;;9.09;100.00;153693.81;5074703;28;20446;-85
2022/12/22 04:44:58;;;;;;;2.40;1.47;;;;;;;9.13;100.00;153704.19;5087703;28;20470;-85
2022/12/22 04:47:43;;;;;;;1.20;0.97;;;;;;;9.11;100.00;153698.97;5064382;28;20519;-85
2022/12/22 04:50:28;;;;;;;1.83;1.00;;;;;;;9.08;100.00;153691.25;5065413;28;20464;-83
2022/12/22 04:53:15;;;;;;;1.30;0.90;;;;;;;9.08;100.00;153691.25;5072452;28;20607;-84
2022/12/22 04:56:02;;;;;;;1.40;0.80;;;;;;;9.06;100.00;153686.06;5065513;28;20909;-84
2022/12/22 04:58:47;;;;;;;1.20;0.70;;;;;;;9.07;100.00;153688.66;5070990;28;20445;-83
2022/12/22 05:01:32;;;;;;;2.87;1.10;;;;;;;9.17;100.00;153714.50;5062781;28;20601;-83
2022/12/22 05:04:17;;;;;;;3.07;1.40;;;;;;;9.13;100.00;153705.44;5075457;28;20427;-83
2022/12/22 05:07:02;;;;;;;1.27;0.77;;;;;;;9.19;100.00;153720.97;5067378;28;20939;-84
2022/12/22 05:09:49;;;;;;;3.47;1.43;;;;;;;9.27;100.00;153740.38;5066318;28;20489;-84
2022/12/22 05:15:38;;;;;;;1.97;0.90;;;;;;;9.32;100.00;153752.03;5072259;28;20495;-84
2022/12/22 05:18:23;;;;;;;2.20;0.90;;;;;;;9.31;100.00;153750.75;5069882;28;20573;-84
2022/12/22 05:21:11;;;;;;;3.73;1.00;;;;;;;9.36;100.00;153762.38;5070797;28;20515;-84
2022/12/22 05:23:56;;;;;;;1.43;1.00;;;;;;;9.36;100.00;153763.66;5070328;28;20441;-84
2022/12/22 05:26:43;;;;;;;2.90;1.30;;;;;;;9.45;100.00;153786.94;5056479;28;20474;-84
2022/12/22 05:29:29;;;;;;;1.80;0.90;;;;;;;9.42;100.00;153779.22;5064467;28;20486;-84
2022/12/22 05:32:16;;;;;;;2.63;1.17;;;;;;;9.44;100.00;153783.06;5068654;28;20434;-85
2022/12/22 05:35:01;;;;;;;1.33;0.80;;;;;;;9.43;100.00;153781.75;5073879;28;20433;-84
2022/12/22 05:37:47;;;;;;;3.10;1.33;;;;;;;9.41;100.00;153775.31;5065548;28;20953;-84
2022/12/22 05:40:34;;;;;;;2.17;1.53;;;;;;;9.41;100.00;153776.59;5073459;28;20450;-84
2022/12/22 05:43:21;;;;;;;2.40;1.10;;;;;;;9.43;100.00;153781.75;5075616;28;20437;-85
2022/12/22 05:46:08;;;;;;;2.93;1.10;;;;;;;9.40;100.00;153772.75;5071482;28;20596;-85
2022/12/22 05:48:54;;;;;;;2.70;0.87;;;;;;;9.38;100.00;153768.84;5071065;28;20434;-85
2022/12/22 05:51:39;;;;;;;1.83;0.93;;;;;;;9.36;100.00;153763.66;5057358;28;20537;-85
2022/12/22 05:54:24;;;;;;;3.03;1.57;;;;;;;9.42;100.00;153777.91;5071140;28;20431;-85
2022/12/22 05:57:09;;;;;;;2.00;1.17;;;;;;;9.40;100.00;153774.00;5054713;28;20434;-85
2022/12/22 05:59:56;;;;;;;4.60;1.00;;;;;;;9.37;100.00;153766.22;5070258;28;20438;-84
2022/12/22 06:02:42;;;;;;;2.57;1.30;;;;;;;9.35;100.00;153761.06;5065399;28;20560;-85
2022/12/22 06:05:27;;;;;;;4.20;1.20;;;;;;;9.35;100.00;153761.06;5067521;28;20466;-84
2022/12/22 06:08:13;;;;;;;1.57;1.03;;;;;;;9.31;100.00;153749.44;5067795;28;20473;-84
2022/12/22 06:10:58;;;;;;;1.70;0.90;;;;;;;9.25;100.00;153735.22;5075454;28;20470;-85
2022/12/22 06:13:44;;;;;;;1.67;0.90;;;;;;;9.26;100.00;153737.81;5070969;28;20969;-84
2022/12/22 06:16:30;;;;;;;3.20;1.30;;;;;;;9.23;100.00;153728.75;5070779;28;20434;-85
2022/12/22 06:19:16;;;;;;;3.00;1.30;;;;;;;9.19;100.00;153720.97;5068434;28;20961;-85
2022/12/22 06:22:01;;;;;;;6.20;1.43;;;;;;;9.17;100.00;153715.81;5069566;28;20867;-84
2022/12/22 06:24:47;;;;;;;1.70;1.00;;;;;;;9.17;100.00;153715.81;5068839;28;20902;-85
2022/12/22 06:27:32;;;;;;;2.87;1.10;;;;;;;9.20;100.00;153722.28;5070784;28;20620;-85
2022/12/22 06:30:18;;;;;;;5.30;1.30;;;;;;;9.10;100.00;153697.72;5067108;28;20481;-85
2022/12/22 06:33:04;;;;;;;1.80;1.10;;;;;;;9.04;100.00;153680.88;5066427;28;20527;-84
2022/12/22 06:35:49;;;;;;;6.20;1.43;;;;;;;9.01;100.00;153674.44;5070589;28;20442;-85
2022/12/22 06:38:35;;;;;;;4.57;1.70;;;;;;;9.03;100.00;153678.28;5069277;28;20438;-85
2022/12/22 06:44:20;;;;;;;3.47;1.50;;;;;;;9.00;100.00;153670.56;5053602;28;20424;-84
2022/12/22 06:47:05;;;;;;;2.60;1.13;;;;;;;8.99;100.00;153667.97;5063413;28;21068;-84
2022/12/22 06:49:52;;;;;;;1.90;1.17;;;;;;;8.96;100.00;153661.50;5070619;28;20446;-84
2022/12/22 06:52:38;;;;;;;3.90;1.33;;;;;;;8.97;100.00;153662.81;5071290;28;20493;-85
2022/12/22 06:55:23;;;;;;;6.87;1.47;;;;;;;9.06;100.00;153686.06;5068127;28;20523;-85
2022/12/22 06:58:08;;;;;;;4.73;1.53;;;;;;;9.08;100.00;153691.25;5071279;28;20794;-84
2022/12/22 07:00:55;;;;;;;1.90;1.33;;;;;;;9.09;100.00;153695.13;5073186;28;20494;-84
2022/12/22 07:03:41;;;;;;;3.73;1.53;;;;;;;9.16;100.00;153711.91;5070166;28;20443;-84
2022/12/22 07:06:28;;;;;;;4.03;1.70;;;;;;;9.15;100.00;153709.34;5071446;28;20805;-84
2022/12/22 07:09:13;;;;;;;3.63;1.43;;;;;;;9.21;100.00;153724.88;5070925;28;20584;-84
2022/12/22 07:11:58;;;;;;;4.13;1.50;;;;;;;9.24;100.00;153732.59;5069693;28;21625;-84
2022/12/22 07:14:44;;;;;;;9.83;1.60;;;;;;;9.24;100.00;153732.59;5070720;28;20733;-84
2022/12/22 07:17:29;;;;;;;6.13;1.80;;;;;;;9.30;100.00;153748.13;5071039;28;20474;-84
2022/12/22 07:20:14;;;;;;;4.40;1.63;;;;;;;9.25;100.00;153735.22;5071015;28;20417;-84
2022/12/22 07:23:01;;;;;;;4.27;2.60;;;;;;;9.24;100.00;153731.34;5069130;28;20531;-84
2022/12/22 07:25:46;;;;;;;7.60;2.90;;;;;;;9.23;100.00;153730.03;5069994;28;20488;-84
2022/12/22 07:28:33;;;;;;;12.10;4.13;;;;;;;9.22;100.00;153727.44;5068855;28;20601;-84
2022/12/22 07:31:19;;;;;;;7.77;5.47;;;;;;;9.26;100.00;153736.50;5069355;28;20442;-85
2022/12/22 07:34:04;;;;;;;7.13;5.90;;;;;;;9.19;100.00;153720.97;5071196;28;20965;-84
2022/12/22 07:36:49;;;;;;;5.43;2.30;;;;;;;9.27;100.00;153740.38;5071659;28;20447;-85
2022/12/22 07:39:36;;;;;;;4.67;1.87;;;;;;;9.29;100.00;153745.59;5058319;28;20439;-85
2022/12/22 07:45:25;;;;;;;3.30;1.20;;;;;;;9.36;100.00;153762.38;5070217;28;20445;-85
2022/12/22 07:51:09;;;;;;;3.53;1.20;;;;;;;9.43;100.00;153780.47;5061772;28;20465;-85
2022/12/22 07:53:55;;;;;;;5.70;1.50;;;;;;;9.37;100.00;153764.97;5068916;28;20436;-85
2022/12/22 07:56:42;;;;;;;4.77;1.47;;;;;;;9.36;100.00;153762.38;5069460;28;20564;-85
2022/12/22 07:59:28;;;;;;;2.27;1.20;;;;;;;9.32;100.00;153753.31;5064306;28;20500;-85
2022/12/22 08:02:13;;;;;;;8.33;1.50;;;;;;;9.26;100.00;153737.81;5070338;28;20540;-85
2022/12/22 08:04:58;;;;;;;6.63;2.40;;;;;;;9.26;100.00;153737.81;5064963;28;20810;-85
2022/12/22 08:07:44;;;;;;;3.57;2.40;;;;;;;9.27;100.00;153739.06;5067212;28;20513;-85
2022/12/22 08:10:31;;;;;;;6.37;2.87;;;;;;;9.26;100.00;153736.50;5069093;28;20445;-85
2022/12/22 08:13:19;;;;;;;4.43;2.80;;;;;;;9.32;100.00;153753.31;5069888;28;20567;-85
2022/12/22 08:16:04;;;;;;;7.33;3.03;;;;;;;9.31;100.00;153749.44;5067216;28;20430;-86
2022/12/22 08:18:50;;;;;;;4.50;2.77;;;;;;;9.26;100.00;153737.81;5071123;28;20433;-85
2022/12/22 08:21:35;;;;;;;6.50;2.30;;;;;;;9.25;100.00;153735.22;5071701;28;20484;-85
2022/12/22 08:24:21;;;;;;;3.80;2.20;;;;;;;9.19;100.00;153719.69;5067191;28;20447;-85
2022/12/22 08:27:08;;;;;;;4.20;2.20;;;;;;;9.23;100.00;153730.03;5069389;28;20469;-85
2022/12/22 08:29:58;;;;;;;6.53;2.23;;;;;;;9.26;100.00;153737.81;5069247;28;20974;-85
2022/12/22 08:32:43;;;;;;;4.70;2.43;;;;;;;9.26;100.00;153737.81;5069366;28;20450;-85
2022/12/22 08:35:28;;;;;;;6.70;3.50;;;;;;;9.24;100.00;153732.59;5065213;28;20508;-86
2022/12/22 08:38:14;;;;;;;4.50;2.80;;;;;;;9.22;100.00;153727.44;5068123;28;20898;-85
2022/12/22 08:40:59;;;;;;;4.30;2.50;;;;;;;9.21;100.00;153723.59;5066507;28;20442;-85
2022/12/22 08:43:45;;;;;;;6.13;2.70;;;;;;;9.28;100.00;153742.97;5069442;28;20457;-85
2022/12/22 08:46:31;;;;;;;5.90;2.73;;;;;;;9.26;100.00;153736.50;5069499;28;20464;-85
2022/12/22 08:49:17;;;;;;;5.13;2.20;;;;;;;9.32;100.00;153753.31;5070957;28;20964;-85
2022/12/22 08:52:02;;;;;;;6.97;2.50;;;;;;;9.34;100.00;153757.22;5068645;28;20453;-85
2022/12/22 08:54:47;;;;;;;8.13;3.63;;;;;;;9.36;100.00;153763.66;5054340;28;20443;-85
2022/12/22 08:57:33;;;;;;;5.13;2.97;;;;;;;9.35;100.00;153761.06;5069177;28;20462;-85
2022/12/22 09:00:19;;;;;;;6.17;2.30;;;;;;;9.43;100.00;153780.47;5069754;28;20443;-85
2022/12/22 09:03:05;;;;;;;7.70;2.20;;;;;;;9.51;100.00;153802.47;5067274;28;20967;-85
2022/12/22 09:05:51;;;;;;;6.83;2.80;;;;;;;9.63;100.00;153832.25;5070843;28;20538;-85
2022/12/22 09:08:36;;;;;;;7.60;2.90;;;;;;;9.72;100.00;153855.50;5074132;28;20429;-85
2022/12/22 09:11:21;;;;;;;7.70;3.60;;;;;;;9.75;100.00;153864.56;5071373;28;21263;-85
2022/12/22 09:14:08;;;;;;;9.70;3.37;;;;;;;9.88;100.00;153895.59;5072746;28;20446;-83
2022/12/22 09:16:53;;;;;;;8.90;3.27;;;;;;;9.99;100.00;153924.09;5065115;28;20870;-85
2022/12/22 09:19:40;;;;;;;5.00;1.40;;;;;;;10.00;100.00;153926.69;5070741;28;20941;-85
2022/12/22 09:22:25;;;;;;;3.30;1.63;;;;;;;9.95;100.00;153915.06;5087275;28;20456;-85
2022/12/22 09:25:13;;;;;;;4.73;2.10;;;;;;;9.90;100.00;153900.81;5074492;28;20549;-85
2022/12/22 09:27:58;;;;;;;3.97;2.47;;;;;;;9.79;100.00;153873.66;5071511;28;20540;-85
2022/12/22 09:30:43;;;;;;;5.83;2.60;;;;;;;9.77;100.00;153868.44;5072212;28;20782;-85
2022/12/22 09:33:29;;;;;;;5.50;2.07;;;;;;;9.67;100.00;153843.88;5070566;28;20825;-85
2022/12/22 09:36:17;;;;;;;4.60;2.47;;;;;;;9.64;100.00;153836.09;5065621;28;20615;-84
2022/12/22 09:39:07;;;;;;;6.33;2.10;;;;;;;9.62;100.00;153829.63;5070507;28;20484;-84
2022/12/22 09:41:54;;;;;;;4.27;1.83;;;;;;;9.60;100.00;153824.47;5066594;28;20458;-84
2022/12/22 09:44:40;;;;;;;5.90;1.80;;;;;;;9.54;100.00;153810.25;5074114;28;20965;-84
2022/12/22 09:47:30;;;;;;;6.20;1.90;;;;;;;9.53;100.00;153806.38;5067269;28;21038;-84
2022/12/22 09:50:17;;;;;;;6.50;1.80;;;;;;;9.46;100.00;153788.22;5070497;28;20422;-84
2022/12/22 09:53:05;;;;;;;4.00;2.00;;;;;;;9.47;100.00;153792.13;5074458;28;20564;-85
2022/12/22 09:56:04;;;;;;;5.47;2.40;;;;;;;9.43;100.00;153780.47;5071840;28;20532;-84
2022/12/22 09:58:49;;;;;;;4.10;1.97;;;;;;;9.42;100.00;153779.22;5069616;28;20441;-84
2022/12/22 10:01:42;;;;;;;2.17;1.20;;;;;;;9.40;100.00;153774.00;5066383;28;20538;-84
2022/12/22 10:04:51;;;;;;;2.10;1.50;;;;;;;9.41;100.00;153775.31;5059491;28;20973;-84
2022/12/22 10:08:00;;;;;;;4.87;1.93;;;;;;;9.39;100.00;153770.13;5053819;28;20467;-84
2022/12/22 10:10:53;;;;;;;4.37;1.43;;;;;;;9.40;100.00;153774.00;5054394;28;20426;-83
2022/12/22 10:13:38;;;;;;;3.37;1.30;;;;;;;9.41;100.00;153775.31;5064058;28;20414;-83
2022/12/22 10:16:26;;;;;;;4.63;1.83;;;;;;;9.48;100.00;153794.69;5071479;28;20426;-84
2022/12/22 10:19:13;;;;;;;4.87;1.23;;;;;;;9.48;100.00;153794.69;5083293;28;20813;-84
2022/12/22 10:22:18;;;;;;;3.43;1.30;;;;;;;9.49;100.00;153796.00;5068292;28;20607;-83
2022/12/22 10:25:43;;;;;;;6.07;2.30;;;;;;;9.54;100.00;153808.94;5071022;28;20441;-84
2022/12/22 10:28:33;;;;;;;3.13;1.37;;;;;;;9.54;100.00;153808.94;5071438;28;20466;-83
2022/12/22 10:31:21;;;;;;;4.70;1.20;;;;;;;9.55;100.00;153812.84;5069108;28;20443;-84
2022/12/22 10:34:12;;;;;;;4.47;1.57;;;;;;;9.62;100.00;153830.94;5075052;28;20511;-84
2022/12/22 10:37:00;;;;;;;3.23;2.30;;;;;;;9.59;100.00;153821.88;5075852;28;20438;-83
2022/12/22 10:39:46;;;;;;;5.33;1.80;;;;;;;9.58;100.00;153820.56;5045913;28;20478;-83
2022/12/22 10:42:31;;;;;;;6.63;4.53;;;;;;;9.58;100.00;153820.56;5049427;28;21073;-83
2022/12/22 10:45:20;;;;;;;6.97;3.40;;;;;;;9.64;100.00;153836.09;5050974;28;20441;-83
2022/12/22 10:48:06;;;;;;;3.53;2.00;;;;;;;9.64;100.00;153836.09;5047122;28;20819;-84
2022/12/22 10:50:51;;;;;;;4.43;1.80;;;;;;;9.68;100.00;153846.47;5045156;28;20438;-84
2022/12/22 10:53:43;;;;;;;1.77;1.37;;;;;;;9.72;100.00;153856.81;5051531;28;20452;-83
2022/12/22 10:56:31;;;;;;;5.53;1.73;;;;;;;9.70;100.00;153850.34;5050733;28;20442;-85
2022/12/22 10:59:19;;;;;;;5.60;2.33;;;;;;;9.67;100.00;153843.88;5049350;28;20491;-85
2022/12/22 11:02:25;;;;;;;4.90;2.93;;;;;;;9.67;100.00;153843.88;5045945;28;20435;-85
2022/12/22 11:05:11;;;;;;;4.63;1.87;;;;;;;9.72;100.00;153856.81;5044307;28;20526;-84
2022/12/22 11:07:59;;;;;;;8.40;3.03;;;;;;;9.66;100.00;153840.00;5043147;28;20849;-85
2022/12/22 11:10:50;;;;;;;5.33;3.20;;;;;;;9.65;100.00;153838.72;5051187;28;20780;-84
2022/12/22 11:13:50;;;;;;;6.07;3.77;;;;;;;9.69;100.00;153847.72;5051445;28;20431;-84
2022/12/22 11:16:41;;;;;;;6.13;2.73;;;;;;;9.71;100.00;153852.94;5050846;28;20442;-84
2022/12/22 11:19:42;;;;;;;4.40;2.63;;;;;;;9.75;100.00;153864.56;5050738;28;20435;-84
2022/12/22 11:22:51;;;;;;;4.27;2.20;;;;;;;9.79;100.00;153873.66;5034202;28;20662;-84
2022/12/22 11:25:43;;;;;;;3.40;1.63;;;;;;;9.86;100.00;153890.44;5051360;28;20406;-83
2022/12/22 11:28:45;;;;;;;4.93;2.83;;;;;;;9.89;100.00;153899.53;5047736;28;20474;-84
2022/12/22 11:31:42;;;;;;;3.60;1.83;;;;;;;9.94;100.00;153912.47;5050813;28;21018;-84
2022/12/22 11:34:41;;;;;;;3.23;1.90;;;;;;;9.98;100.00;153922.78;5054810;28;20957;-84
2022/12/22 11:37:31;;;;;;;3.40;1.80;;;;;;;10.03;100.00;153934.47;5048059;28;20450;-83
2022/12/22 11:40:24;;;;;;;2.70;1.73;;;;;;;10.03;100.00;153934.47;5048545;28;20506;-83
2022/12/22 11:43:20;;;;;;;3.40;1.93;;;;;;;10.08;100.00;153947.41;5052438;28;20462;-83
2022/12/22 11:46:17;;;;;;;2.57;1.47;;;;;;;10.04;100.00;153937.03;5047541;28;20523;-83
2022/12/22 11:49:23;;;;;;;2.33;1.03;;;;;;;10.04;100.00;153938.34;5044863;28;20427;-84
2022/12/22 11:52:20;;;;;;;3.37;1.53;;;;;;;10.09;100.00;153951.25;5045613;28;20605;-83
2022/12/22 11:55:19;;;;;;;2.03;0.87;;;;;;;10.20;100.00;153978.50;5049626;28;20961;-84
2022/12/22 11:58:18;;;;;;;2.70;1.60;;;;;;;10.19;100.00;153977.19;5042295;28;20460;-84
2022/12/22 12:01:13;;;;;;;3.77;1.50;;;;;;;10.18;100.00;153974.63;5044881;28;20509;-84
2022/12/22 12:04:18;;;;;;;1.97;0.73;;;;;;;10.20;100.00;153979.81;5046093;28;20432;-84
2022/12/22 12:07:21;;;;;;;1.90;1.00;;;;;;;10.27;100.00;153996.66;5042597;28;20482;-84
2022/12/22 12:10:14;;;;;;;2.57;1.53;;;;;;;10.30;100.00;154004.38;5043953;28;20493;-84
2022/12/22 12:13:03;;;;;;;3.23;1.13;;;;;;;10.36;100.00;154019.94;5043086;28;20577;-84
2022/12/22 12:15:56;;;;;;;1.90;1.07;;;;;;;10.43;100.00;154036.78;5048148;28;20578;-84
2022/12/22 12:18:54;;;;;;;2.43;1.27;;;;;;;10.57;100.00;154074.31;5047470;28;20785;-84
2022/12/22 12:21:46;;;;;;;3.73;1.40;;;;;;;10.59;100.00;154079.47;5046663;28;20458;-84
2022/12/22 12:24:55;;;;;;;1.70;0.77;;;;;;;10.66;100.00;154096.31;5048613;28;20456;-84
2022/12/22 12:27:50;;;;;;;2.87;0.80;;;;;;;10.76;100.00;154122.22;5045223;28;20474;-84
2022/12/22 12:30:40;;;;;;;2.63;1.23;;;;;;;10.79;100.00;154131.28;5043876;28;20885;-84
2022/12/22 12:33:36;;;;;;;2.20;1.00;;;;;;;10.92;100.00;154163.66;5044074;28;20451;-84
2022/12/22 12:36:26;;;;;;;1.80;0.87;;;;;;;10.92;100.00;154164.97;5050184;28;20412;-84
2022/12/22 12:39:16;;;;;;;1.77;0.73;;;;;;;10.91;100.00;154161.06;5042043;28;20588;-85
2022/12/22 12:42:12;;;;;;;2.60;0.97;;;;;;;10.89;100.00;154157.19;5048621;28;20945;-84
2022/12/22 12:44:59;;;;;;;1.23;0.43;;;;;;;10.87;100.00;154152.03;5053338;28;20474;-84
2022/12/22 12:47:44;;;;;;;2.47;0.47;;;;;;;10.91;100.00;154161.06;5053331;28;21093;-84
2022/12/22 12:50:32;;;;;;;2.30;0.80;;;;;;;10.90;100.00;154159.78;5053632;28;20841;-85
2022/12/22 12:53:18;;;;;;;1.43;0.80;;;;;;;10.87;100.00;154150.72;5055816;28;20431;-84
2022/12/22 12:56:07;;;;;;;1.77;0.70;;;;;;;10.84;100.00;154144.25;5046825;28;20822;-84
2022/12/22 12:58:54;;;;;;;2.83;0.90;;;;;;;10.86;100.00;154148.09;5049637;28;20442;-84
2022/12/22 13:01:58;;;;;;;2.40;0.90;;;;;;;10.87;100.00;154152.03;5053423;28;20447;-84
2022/12/22 13:05:32;;;;;;;1.10;0.53;;;;;;;10.78;100.00;154128.69;5047363;28;20689;-85
2022/12/22 13:08:20;;;;;;;2.70;1.03;;;;;;;10.76;100.00;154123.53;5049365;28;20463;-84
2022/12/22 13:11:33;;;;;;;0.80;0.40;;;;;;;10.79;100.00;154131.28;5050810;28;20476;-84
2022/12/22 13:15:00;;;;;;;1.20;0.50;;;;;;;10.75;100.00;154119.66;5050024;28;20457;-84
2022/12/22 13:17:49;;;;;;;1.60;0.60;;;;;;;10.80;100.00;154133.84;5021798;28;20590;-84
2022/12/22 13:20:36;;;;;;;2.90;1.00;;;;;;;10.76;100.00;154122.22;5050846;28;20467;-84
2022/12/22 13:23:21;;;;;;;1.70;0.63;;;;;;;10.75;100.00;154119.66;5047219;28;20452;-84
2022/12/22 13:26:09;;;;;;;1.30;0.63;;;;;;;10.80;100.00;154133.84;5042481;28;21664;-84
2022/12/22 13:28:57;;;;;;;1.10;0.60;;;;;;;10.78;100.00;154128.69;5047969;28;20470;-84
2022/12/22 13:31:44;;;;;;;1.07;0.57;;;;;;;10.76;100.00;154123.53;5064566;28;20449;-84
2022/12/22 13:34:38;;;;;;;2.33;0.70;;;;;;;10.70;100.00;154107.97;5044090;28;20583;-84
2022/12/22 13:37:24;;;;;;;2.33;0.80;;;;;;;10.76;100.00;154123.53;5056879;28;20448;-84
2022/12/22 13:40:13;;;;;;;2.07;0.60;;;;;;;10.77;100.00;154126.13;5046319;28;20478;-84
2022/12/22 13:43:02;;;;;;;2.33;0.80;;;;;;;10.78;100.00;154128.69;5048817;28;20451;-84
2022/12/22 13:45:49;;;;;;;2.80;0.80;;;;;;;10.80;100.00;154133.84;5038452;28;20780;-84
2022/12/22 13:48:38;;;;;;;1.33;0.90;;;;;;;10.77;100.00;154126.13;5051832;28;20927;-84
2022/12/22 13:51:27;;;;;;;3.77;0.93;;;;;;;10.77;100.00;154124.81;5041873;28;20446;-84
2022/12/22 13:54:15;;;;;;;4.47;1.73;;;;;;;10.75;100.00;154120.91;5045904;28;20513;-84
2022/12/22 13:57:01;;;;;;;1.57;0.57;;;;;;;10.77;100.00;154126.13;5045933;28;20583;-84
2022/12/22 13:59:49;;;;;;;2.30;1.07;;;;;;;10.75;100.00;154120.91;5046304;28;20482;-84
2022/12/22 14:02:34;;;;;;;3.13;0.93;;;;;;;10.84;100.00;154142.94;5052398;28;20443;-85
2022/12/22 14:05:20;;;;;;;1.87;0.70;;;;;;;10.86;100.00;154148.09;5053027;28;20949;-84
2022/12/22 14:08:07;;;;;;;4.33;1.10;;;;;;;10.84;100.00;154144.25;5050940;28;20769;-85
2022/12/22 14:10:53;;;;;;;2.70;0.90;;;;;;;10.80;100.00;154133.84;5048421;28;20486;-84
2022/12/22 14:13:39;;;;;;;2.33;1.00;;;;;;;10.82;100.00;154139.06;5051922;28;20529;-85
2022/12/22 14:16:24;;;;;;;1.50;0.90;;;;;;;10.79;100.00;154131.28;5048483;28;20998;-84
2022/12/22 14:19:11;;;;;;;2.13;0.90;;;;;;;10.78;100.00;154127.38;5049636;28;20439;-84
2022/12/22 14:22:04;;;;;;;2.40;0.87;;;;;;;10.76;100.00;154123.53;5043156;28;20459;-83
2022/12/22 14:24:54;;;;;;;2.50;1.13;;;;;;;10.75;100.00;154120.91;5041876;28;20431;-84
2022/12/22 14:27:42;;;;;;;4.40;0.90;;;;;;;10.77;100.00;154126.13;5049325;28;20974;-83
2022/12/22 14:30:30;;;;;;;3.13;1.00;;;;;;;10.70;100.00;154106.66;5047392;28;20578;-84
2022/12/22 14:33:30;;;;;;;3.80;1.20;;;;;;;10.67;100.00;154098.94;5045984;28;20464;-84
2022/12/22 14:36:18;;;;;;;2.33;1.10;;;;;;;10.63;100.00;154089.84;5047744;28;20452;-85
2022/12/22 14:39:09;;;;;;;1.43;0.87;;;;;;;10.65;100.00;154095.03;5048773;28;20779;-85
2022/12/22 14:41:57;;;;;;;2.97;1.50;;;;;;;10.65;100.00;154095.03;5042617;28;20590;-85
2022/12/22 14:44:43;;;;;;;5.83;1.83;;;;;;;10.60;100.00;154082.06;5045195;28;20467;-85
2022/12/22 14:47:29;;;;;;;3.63;1.40;;;;;;;10.56;100.00;154070.44;5050330;28;20512;-85
2022/12/22 14:50:17;;;;;;;1.90;1.03;;;;;;;10.51;100.00;154058.75;5044699;28;20440;-85
2022/12/22 14:53:03;;;;;;;4.90;1.40;;;;;;;10.55;100.00;154069.13;5054635;28;20575;-85
2022/12/22 14:55:49;;;;;;;2.80;1.70;;;;;;;10.52;100.00;154061.34;5048054;28;20945;-85
2022/12/22 14:58:39;;;;;;;3.67;1.43;;;;;;;10.48;100.00;154049.72;5053174;28;20464;-85
2022/12/22 15:01:26;;;;;;;4.33;1.90;;;;;;;10.45;100.00;154041.94;5046210;28;20423;-85
2022/12/22 15:04:17;;;;;;;4.40;1.57;;;;;;;10.43;100.00;154038.09;5049288;28;20474;-85
2022/12/22 15:07:07;;;;;;;2.77;1.40;;;;;;;10.34;100.00;154014.75;5051649;28;20510;-85
2022/12/22 15:10:00;;;;;;;3.53;1.70;;;;;;;10.31;100.00;154007.00;5051862;28;20405;-85
2022/12/22 15:12:47;;;;;;;8.17;2.63;;;;;;;10.26;100.00;153994.03;5051092;28;20538;-86
2022/12/22 15:15:34;;;;;;;5.07;1.87;;;;;;;10.21;100.00;153981.09;5051056;28;20498;-85
2022/12/22 15:18:24;;;;;;;2.57;1.40;;;;;;;10.17;100.00;153970.72;5049029;28;20517;-85
2022/12/22 15:21:12;;;;;;;5.53;1.80;;;;;;;10.16;100.00;153968.16;5033845;28;20815;-85
2022/12/22 15:23:58;;;;;;;3.10;1.90;;;;;;;10.11;100.00;153956.44;5046560;28;20439;-85
2022/12/22 15:26:44;;;;;;;3.93;1.47;;;;;;;10.05;100.00;153940.94;5052090;28;20427;-86
2022/12/22 15:29:29;;;;;;;5.10;1.40;;;;;;;9.99;100.00;153925.38;5052165;28;20586;-85
2022/12/22 15:32:16;;;;;;;3.70;1.80;;;;;;;9.96;100.00;153916.31;5050381;28;20454;-85
2022/12/22 15:35:02;;;;;;;4.20;1.97;;;;;;;9.94;100.00;153912.47;5061374;28;20783;-85
2022/12/22 15:37:48;;;;;;;5.00;2.30;;;;;;;9.88;100.00;153895.59;5051682;28;20455;-85
2022/12/22 15:40:33;;;;;;;6.13;2.30;;;;;;;9.89;100.00;153898.22;5049380;28;20451;-85
2022/12/22 15:43:18;;;;;;;2.60;1.40;;;;;;;9.80;100.00;153877.50;5032461;28;20514;-85
2022/12/22 15:46:05;;;;;;;3.40;1.00;;;;;;;9.80;100.00;153876.22;5040764;28;20439;-85
2022/12/22 15:48:52;;;;;;;5.47;1.20;;;;;;;9.75;100.00;153864.56;5050131;28;20465;-85
2022/12/22 15:51:37;;;;;;;3.60;1.50;;;;;;;9.77;100.00;153869.75;5049591;28;20804;-85
2022/12/22 15:54:23;;;;;;;3.50;1.23;;;;;;;9.71;100.00;153854.25;5050139;28;20438;-85
2022/12/22 15:57:11;;;;;;;5.93;3.00;;;;;;;9.72;100.00;153855.50;5050555;28;20936;-85
2022/12/22 15:59:56;;;;;;;6.10;2.50;;;;;;;9.68;100.00;153846.47;5050441;28;20452;-85
2022/12/22 16:02:42;;;;;;;3.40;1.63;;;;;;;9.68;100.00;153846.47;5051600;28;20448;-85
2022/12/22 16:05:28;;;;;;;5.70;2.10;;;;;;;9.66;100.00;153841.25;5046657;28;20424;-85
2022/12/22 16:08:16;;;;;;;3.20;1.50;;;;;;;9.66;100.00;153841.25;5045427;28;20462;-86
2022/12/22 16:11:01;;;;;;;5.47;1.70;;;;;;;9.64;100.00;153836.09;5048205;28;20472;-86
2022/12/22 16:13:48;;;;;;;8.53;2.43;;;;;;;9.63;100.00;153833.53;5049267;28;20456;-85
2022/12/22 16:16:33;;;;;;;3.27;1.73;;;;;;;9.59;100.00;153823.16;5036130;28;20436;-85
2022/12/22 16:19:18;;;;;;;5.70;2.50;;;;;;;9.59;100.00;153821.88;5052007;28;20440;-86
2022/12/22 16:22:05;;;;;;;3.27;1.53;;;;;;;9.59;100.00;153823.16;5055259;28;20567;-84
2022/12/22 16:24:51;;;;;;;5.67;2.30;;;;;;;9.57;100.00;153816.69;5054367;28;20822;-85
2022/12/22 16:27:36;;;;;;;4.40;2.03;;;;;;;9.52;100.00;153803.78;5052400;28;20467;-86
2022/12/22 16:30:24;;;;;;;5.07;2.43;;;;;;;9.53;100.00;153807.63;5050649;28;20626;-85
2022/12/22 16:33:10;;;;;;;3.90;1.93;;;;;;;9.52;100.00;153803.78;5049841;28;21066;-86
2022/12/22 16:35:56;;;;;;;3.80;1.90;;;;;;;9.50;100.00;153799.91;5050461;28;20444;-86
2022/12/22 16:38:44;;;;;;;3.40;1.40;;;;;;;9.49;100.00;153796.00;5050250;28;20461;-85
2022/12/22 16:41:29;;;;;;;9.70;2.27;;;;;;;9.46;100.00;153788.22;5049986;28;21239;-86
2022/12/22 16:44:20;;;;;;;4.87;2.27;;;;;;;9.44;100.00;153784.38;5047925;28;20826;-85